sensor_id;sensor_type;location;lat;lon;timestamp;pressure;altitude;pressure_sealevel;temperature;humidity
53940;BME280;39850;43.324;21.916;2022-12-29T00:02:57;1002.0;;;7.6;75.0
53940;BME280;39850;43.324;21.916;2022-12-29T00:07:33;1002.0;;;7.6;75.0
53940;BME280;39850;43.324;21.916;2022-12-29T00:12:09;1002.0;;;7.4;75.0
53940;BME280;39850;43.324;21.916;2022-12-29T00:16:46;1002.0;;;7.4;75.0
53940;BME280;39850;43.324;21.916;2022-12-29T00:21:24;1002.0;;;7.4;75.0
53940;BME280;39850;43.324;21.916;2022-12-29T00:26:11;1002.0;;;7.4;75.0
53940;BME280;39850;43.324;21.916;2022-12-29T00:30:48;1001.0;;;7.1;75.0
53940;BME280;39850;43.324;21.916;2022-12-29T00:35:39;1001.0;;;7.1;75.0
53940;BME280;39850;43.324;21.916;2022-12-29T01:21:45;1001.0;;;7.3;77.0
53940;BME280;39850;43.324;21.916;2022-12-29T01:26:22;1001.0;;;7.3;77.0
53940;BME280;39850;43.324;21.916;2022-12-29T01:31:00;1001.0;;;7.3;78.0
53940;BME280;39850;43.324;21.916;2022-12-29T01:35:37;1001.0;;;7.3;78.0
53940;BME280;39850;43.324;21.916;2022-12-29T01:40:13;1001.0;;;7.3;78.0
53940;BME280;39850;43.324;21.916;2022-12-29T01:44:56;1001.0;;;7.3;78.0
53940;BME280;39850;43.324;21.916;2022-12-29T01:49:33;1001.0;;;7.3;78.0
53940;BME280;39850;43.324;21.916;2022-12-29T01:54:22;1001.0;;;7.3;78.0
53940;BME280;39850;43.324;21.916;2022-12-29T02:42:43;1001.0;;;6.5;78.0
53940;BME280;39850;43.324;21.916;2022-12-29T02:47:36;1001.0;;;6.5;78.0
53940;BME280;39850;43.324;21.916;2022-12-29T02:52:26;1001.0;;;6.4;78.0
53940;BME280;39850;43.324;21.916;2022-12-29T02:57:15;1001.0;;;6.4;78.0
53940;BME280;39850;43.324;21.916;2022-12-29T03:02:35;1001.0;;;6.4;78.0
53940;BME280;39850;43.324;21.916;2022-12-29T03:07:42;1001.0;;;6.4;78.0
53940;BME280;39850;43.324;21.916;2022-12-29T03:12:36;1001.0;;;6.2;79.0
53940;BME280;39850;43.324;21.916;2022-12-29T03:17:46;1001.0;;;6.2;79.0
53940;BME280;39850;43.324;21.916;2022-12-29T03:59:53;1001.0;;;7.1;80.0
53940;BME280;39850;43.324;21.916;2022-12-29T04:04:29;1001.0;;;7.1;80.0
53940;BME280;39850;43.324;21.916;2022-12-29T04:09:06;1001.0;;;7.1;80.0
53940;BME280;39850;43.324;21.916;2022-12-29T04:13:42;1001.0;;;6.8;80.0
53940;BME280;39850;43.324;21.916;2022-12-29T04:18:18;1001.0;;;6.8;80.0
53940;BME280;39850;43.324;21.916;2022-12-29T04:23:00;1001.0;;;6.5;80.0
53940;BME280;39850;43.324;21.916;2022-12-29T04:27:36;1001.0;;;6.5;80.0
53940;BME280;39850;43.324;21.916;2022-12-29T04:32:12;1001.0;;;6.4;80.0
53940;BME280;39850;43.324;21.916;2022-12-29T04:36:49;1001.0;;;6.4;80.0
53940;BME280;39850;43.324;21.916;2022-12-29T04:41:27;1001.0;;;6.2;80.0
53940;BME280;39850;43.324;21.916;2022-12-29T04:46:04;1001.0;;;6.2;80.0
53940;BME280;39850;43.324;21.916;2022-12-29T05:32:08;1001.0;;;7.3;77.0
53940;BME280;39850;43.324;21.916;2022-12-29T05:36:43;1001.0;;;7.3;77.0
53940;BME280;39850;43.324;21.916;2022-12-29T05:41:19;1001.0;;;7.3;77.0
53940;BME280;39850;43.324;21.916;2022-12-29T05:45:55;1001.0;;;7.3;77.0
53940;BME280;39850;43.324;21.916;2022-12-29T05:50:32;1001.0;;;7.3;77.0
53940;BME280;39850;43.324;21.916;2022-12-29T05:55:09;1001.0;;;7.3;77.0
53940;BME280;39850;43.324;21.916;2022-12-29T06:41:09;1002.0;;;6.7;77.0
53940;BME280;39850;43.324;21.916;2022-12-29T06:45:45;1002.0;;;6.7;77.0
53940;BME280;39850;43.324;21.916;2022-12-29T06:50:22;1002.0;;;6.8;77.0
53940;BME280;39850;43.324;21.916;2022-12-29T06:54:58;1002.0;;;6.8;77.0
53940;BME280;39850;43.324;21.916;2022-12-29T06:59:34;1002.0;;;6.8;77.0
53940;BME280;39850;43.324;21.916;2022-12-29T07:04:11;1002.0;;;6.9;77.0
53940;BME280;39850;43.324;21.916;2022-12-29T07:08:47;1002.0;;;6.9;77.0
53940;BME280;39850;43.324;21.916;2022-12-29T07:13:23;1002.0;;;7.1;77.0
53940;BME280;39850;43.324;21.916;2022-12-29T07:18:00;1002.0;;;7.1;77.0
53940;BME280;39850;43.324;21.916;2022-12-29T07:22:36;1002.0;;;7.3;76.0
53940;BME280;39850;43.324;21.916;2022-12-29T07:27:13;1002.0;;;7.3;76.0
53940;BME280;39850;43.324;21.916;2022-12-29T08:13:11;1002.0;;;8.2;76.0
53940;BME280;39850;43.324;21.916;2022-12-29T08:17:47;1002.0;;;8.2;76.0
53940;BME280;39850;43.324;21.916;2022-12-29T08:22:23;1002.0;;;8.2;76.0
53940;BME280;39850;43.324;21.916;2022-12-29T08:26:59;1002.0;;;8.2;76.0
53940;BME280;39850;43.324;21.916;2022-12-29T08:31:35;1002.0;;;8.2;76.0
53940;BME280;39850;43.324;21.916;2022-12-29T08:36:11;1002.0;;;8.2;76.0
53940;BME280;39850;43.324;21.916;2022-12-29T09:31:22;1002.0;;;11.7;65.0
53940;BME280;39850;43.324;21.916;2022-12-29T09:35:58;1002.0;;;11.7;65.0
53940;BME280;39850;43.324;21.916;2022-12-29T09:40:35;1002.0;;;11.8;65.0
53940;BME280;39850;43.324;21.916;2022-12-29T09:45:21;1002.0;;;11.8;65.0
53940;BME280;39850;43.324;21.916;2022-12-29T09:50:22;1002.0;;;11.8;65.0
53940;BME280;39850;43.324;21.916;2022-12-29T09:55:13;1002.0;;;11.8;65.0
53940;BME280;39850;43.324;21.916;2022-12-29T10:00:03;1002.0;;;11.8;65.0
53940;BME280;39850;43.324;21.916;2022-12-29T10:04:49;1002.0;;;12.0;65.0
53940;BME280;39850;43.324;21.916;2022-12-29T10:09:40;1002.0;;;12.0;65.0
53940;BME280;39850;43.324;21.916;2022-12-29T10:43:47;1001.0;;;13.7;61.0
53940;BME280;39850;43.324;21.916;2022-12-29T10:48:29;1001.0;;;13.7;61.0
53940;BME280;39850;43.324;21.916;2022-12-29T10:53:06;1001.0;;;13.7;61.0
53940;BME280;39850;43.324;21.916;2022-12-29T10:57:45;1001.0;;;13.7;61.0
53940;BME280;39850;43.324;21.916;2022-12-29T11:02:58;1001.0;;;13.7;61.0
53940;BME280;39850;43.324;21.916;2022-12-29T11:08:04;1001.0;;;13.7;61.0
53940;BME280;39850;43.324;21.916;2022-12-29T14:55:44;999.0;;;12.6;64.0
53940;BME280;39850;43.324;21.916;2022-12-29T15:00:34;999.0;;;12.6;64.0
53940;BME280;39850;43.324;21.916;2022-12-29T15:05:41;999.0;;;12.6;64.0
53940;BME280;39850;43.324;21.916;2022-12-29T15:10:23;999.0;;;12.6;64.0
53940;BME280;39850;43.324;21.916;2022-12-29T15:15:28;999.0;;;12.6;64.0
53940;BME280;39850;43.324;21.916;2022-12-29T15:20:30;999.0;;;12.6;64.0
53940;BME280;39850;43.324;21.916;2022-12-29T16:12:37;999.0;;;12.7;65.0
53940;BME280;39850;43.324;21.916;2022-12-29T16:17:27;999.0;;;12.7;65.0
53940;BME280;39850;43.324;21.916;2022-12-29T16:22:29;999.0;;;12.1;65.0
53940;BME280;39850;43.324;21.916;2022-12-29T16:27:31;999.0;;;12.1;65.0
53940;BME280;39850;43.324;21.916;2022-12-29T16:32:31;999.0;;;12.1;65.0
53940;BME280;39850;43.324;21.916;2022-12-29T16:37:34;999.0;;;12.1;65.0
53940;BME280;39850;43.324;21.916;2022-12-29T16:42:46;999.0;;;11.6;65.0
53940;BME280;39850;43.324;21.916;2022-12-29T16:47:23;999.0;;;11.6;65.0
53940;BME280;39850;43.324;21.916;2022-12-29T17:34:17;1000.0;;;11.8;65.0
53940;BME280;39850;43.324;21.916;2022-12-29T17:38:54;1000.0;;;11.8;65.0
53940;BME280;39850;43.324;21.916;2022-12-29T17:43:31;1000.0;;;11.8;65.0
53940;BME280;39850;43.324;21.916;2022-12-29T17:48:17;1000.0;;;11.8;65.0
53940;BME280;39850;43.324;21.916;2022-12-29T17:53:04;1000.0;;;11.8;65.0
53940;BME280;39850;43.324;21.916;2022-12-29T17:57:47;1000.0;;;11.8;65.0
53940;BME280;39850;43.324;21.916;2022-12-29T18:02:31;1000.0;;;11.8;65.0
53940;BME280;39850;43.324;21.916;2022-12-29T18:07:10;1000.0;;;11.8;65.0
53940;BME280;39850;43.324;21.916;2022-12-29T18:11:47;1000.0;;;11.8;65.0
53940;BME280;39850;43.324;21.916;2022-12-29T18:53:45;1000.0;;;10.8;70.0
53940;BME280;39850;43.324;21.916;2022-12-29T18:58:22;1000.0;;;10.8;70.0
53940;BME280;39850;43.324;21.916;2022-12-29T19:02:58;1000.0;;;10.8;70.0
53940;BME280;39850;43.324;21.916;2022-12-29T19:07:35;1000.0;;;10.8;70.0
53940;BME280;39850;43.324;21.916;2022-12-29T19:12:15;1000.0;;;10.8;70.0
53940;BME280;39850;43.324;21.916;2022-12-29T19:16:51;1000.0;;;10.8;70.0
53940;BME280;39850;43.324;21.916;2022-12-29T19:21:28;1000.0;;;10.8;70.0
53940;BME280;39850;43.324;21.916;2022-12-29T19:26:05;1000.0;;;10.7;71.0
53940;BME280;39850;43.324;21.916;2022-12-29T19:30:41;1000.0;;;10.7;71.0
53940;BME280;39850;43.324;21.916;2022-12-29T20:16:53;1000.0;;;10.6;73.0
53940;BME280;39850;43.324;21.916;2022-12-29T20:21:30;1000.0;;;10.6;73.0
53940;BME280;39850;43.324;21.916;2022-12-29T20:26:15;1000.0;;;10.2;73.0
53940;BME280;39850;43.324;21.916;2022-12-29T20:31:04;1000.0;;;10.2;73.0
53940;BME280;39850;43.324;21.916;2022-12-29T20:35:40;1000.0;;;10.2;73.0
53940;BME280;39850;43.324;21.916;2022-12-29T20:40:17;1000.0;;;10.2;73.0
53940;BME280;39850;43.324;21.916;2022-12-29T20:44:54;1000.0;;;9.8;72.0
53940;BME280;39850;43.324;21.916;2022-12-29T20:49:32;1000.0;;;9.8;72.0
53940;BME280;39850;43.324;21.916;2022-12-29T21:26:26;1000.0;;;9.8;74.0
53940;BME280;39850;43.324;21.916;2022-12-29T21:31:23;1000.0;;;9.8;74.0
53940;BME280;39850;43.324;21.916;2022-12-29T21:36:07;1000.0;;;9.8;74.0
53940;BME280;39850;43.324;21.916;2022-12-29T21:40:44;1000.0;;;9.8;74.0
53940;BME280;39850;43.324;21.916;2022-12-29T21:45:20;1000.0;;;10.1;74.0
53940;BME280;39850;43.324;21.916;2022-12-29T21:49:56;1000.0;;;10.1;74.0
53940;BME280;39850;43.324;21.916;2022-12-29T21:54:33;1000.0;;;10.4;74.0
53940;BME280;39850;43.324;21.916;2022-12-29T21:59:13;1000.0;;;10.4;74.0
53940;BME280;39850;43.324;21.916;2022-12-29T22:03:51;1000.0;;;10.4;74.0
53940;BME280;39850;43.324;21.916;2022-12-29T22:08:28;1000.0;;;10.4;74.0
53940;BME280;39850;43.324;21.916;2022-12-29T22:54:35;1000.0;;;9.8;75.0
53940;BME280;39850;43.324;21.916;2022-12-29T22:59:16;1000.0;;;9.8;75.0
53940;BME280;39850;43.324;21.916;2022-12-29T23:03:52;1000.0;;;9.8;75.0
53940;BME280;39850;43.324;21.916;2022-12-29T23:08:39;1000.0;;;9.8;75.0
53940;BME280;39850;43.324;21.916;2022-12-29T23:13:15;1000.0;;;9.8;75.0
53940;BME280;39850;43.324;21.916;2022-12-29T23:17:52;1000.0;;;9.8;75.0
53940;BME280;39850;43.324;21.916;2022-12-29T23:22:28;1000.0;;;9.8;75.0
